Time;durP1;ratioP1;P1;durP2;ratioP2;P2;SDS_P1;SDS_P2;PMS_P1;PMS_P2;Temp;Humidity;BMP_temperature;BMP_pressure;BME280_temperature;BME280_humidity;BME280_pressure;Samples;Min_cycle;Max_cycle;Signal;HPM_P1;HPM_P2
2021/11/10 00:01:46;;;;;;;17.50;8.07;;;;;;;;;;4994412;28;20046;-75
2021/11/10 00:04:14;;;;;;;10.95;6.40;;;;;;;;;;4992474;28;20414;-75
2021/11/10 00:06:43;;;;;;;19.98;8.80;;;;;;;;;;4994073;28;20106;-72
2021/11/10 00:09:10;;;;;;;16.55;8.90;;;;;;;;;;4994057;28;20521;-72
2021/11/10 00:11:38;;;;;;;21.63;8.85;;;;;;;;;;4994415;28;20042;-71
2021/11/10 00:14:07;;;;;;;18.10;8.38;;;;;;;;;;4994097;28;20049;-72
2021/11/10 00:16:35;;;;;;;21.58;9.02;;;;;;;;;;4994013;28;20042;-76
2021/11/10 00:19:03;;;;;;;21.58;9.50;;;;;;;;;;4993700;28;20050;-71
2021/11/10 00:21:31;;;;;;;13.55;7.85;;;;;;;;;;4994492;28;20048;-75
2021/11/10 00:23:58;;;;;;;18.80;9.32;;;;;;;;;;4992728;28;20045;-73
2021/11/10 00:26:26;;;;;;;21.63;9.20;;;;;;;;;;4993749;28;20133;-72
2021/11/10 00:28:54;;;;;;;17.52;9.25;;;;;;;;;;4985202;28;20039;-72
2021/11/10 00:31:22;;;;;;;23.85;9.57;;;;;;;;;;4974810;28;20050;-71
2021/11/10 00:33:50;;;;;;;19.38;8.90;;;;;;;;;;4973994;28;20039;-75
2021/11/10 00:36:17;;;;;;;33.80;12.05;;;;;;;;;;4974598;28;20069;-72
2021/11/10 00:38:46;;;;;;;16.70;8.68;;;;;;;;;;4974660;28;20050;-74
2021/11/10 00:41:15;;;;;;;24.73;9.65;;;;;;;;;;4974467;28;20030;-71
2021/11/10 00:43:42;;;;;;;22.42;10.63;;;;;;;;;;4974305;28;20049;-74
2021/11/10 00:46:11;;;;;;;22.05;10.27;;;;;;;;;;4972707;28;20430;-71
2021/11/10 00:48:40;;;;;;;28.80;12.60;;;;;;;;;;4974067;28;20042;-75
2021/11/10 00:51:08;;;;;;;18.05;9.82;;;;;;;;;;4974221;28;20124;-75
2021/11/10 00:53:37;;;;;;;22.88;10.25;;;;;;;;;;4972864;28;20047;-71
2021/11/10 00:56:04;;;;;;;28.00;10.77;;;;;;;;;;4972874;28;20486;-75
2021/11/10 00:58:32;;;;;;;27.10;10.27;;;;;;;;;;4972962;28;20074;-75
2021/11/10 01:01:00;;;;;;;32.90;11.07;;;;;;;;;;4974091;28;20089;-75
2021/11/10 01:03:29;;;;;;;22.73;10.52;;;;;;;;;;4973804;28;20066;-70
2021/11/10 01:05:59;;;;;;;24.95;10.07;;;;;;;;;;4972524;28;20047;-71
2021/11/10 01:08:27;;;;;;;24.35;10.43;;;;;;;;;;4974008;28;20051;-75
2021/11/10 01:10:56;;;;;;;21.92;9.90;;;;;;;;;;4974135;28;20066;-74
2021/11/10 01:13:27;;;;;;;23.70;9.82;;;;;;;;;;4972438;28;20572;-71
2021/11/10 01:15:57;;;;;;;26.83;9.38;;;;;;;;;;4972521;28;20039;-72
2021/11/10 01:18:25;;;;;;;27.02;10.07;;;;;;;;;;4971906;28;20062;-75
2021/11/10 01:20:59;;;;;;;36.55;8.57;;;;;;;;;;4972215;28;20051;-72
2021/11/10 01:23:28;;;;;;;24.85;9.48;;;;;;;;;;4972627;28;20050;-72
2021/11/10 01:25:56;;;;;;;23.20;9.68;;;;;;;;;;4974280;28;20054;-72
2021/11/10 01:28:25;;;;;;;17.50;9.13;;;;;;;;;;4976233;28;20138;-71
2021/11/10 01:30:52;;;;;;;24.88;9.25;;;;;;;;;;4977513;28;20402;-71
2021/11/10 01:33:24;;;;;;;25.27;9.48;;;;;;;;;;4989917;28;20508;-71
2021/11/10 01:35:53;;;;;;;24.92;10.02;;;;;;;;;;4979888;28;20053;-72
2021/11/10 01:38:22;;;;;;;35.60;9.77;;;;;;;;;;4996079;28;20042;-72
2021/11/10 01:40:51;;;;;;;25.42;10.27;;;;;;;;;;4995107;28;20568;-74
2021/11/10 01:43:19;;;;;;;25.38;10.63;;;;;;;;;;4995641;28;20055;-70
2021/11/10 01:45:54;;;;;;;24.05;10.93;;;;;;;;;;4995466;28;20058;-75
2021/11/10 01:48:22;;;;;;;21.45;10.43;;;;;;;;;;4995166;28;20074;-72
2021/11/10 01:50:52;;;;;;;34.38;10.57;;;;;;;;;;4995721;28;20069;-75
2021/11/10 01:53:22;;;;;;;26.17;9.88;;;;;;;;;;4979349;28;20503;-71
2021/11/10 01:55:50;;;;;;;25.45;11.40;;;;;;;;;;4995534;28;20042;-71
2021/11/10 01:58:18;;;;;;;27.15;10.98;;;;;;;;;;4995451;28;20046;-71
2021/11/10 02:00:46;;;;;;;23.50;10.50;;;;;;;;;;4995023;28;20050;-75
2021/11/10 02:03:16;;;;;;;25.67;10.25;;;;;;;;;;4995337;28;20054;-75
2021/11/10 02:05:50;;;;;;;23.25;10.48;;;;;;;;;;4996333;28;20046;-74
2021/11/10 02:08:37;;;;;;;25.13;10.75;;;;;;;;;;4996676;28;20140;-71
2021/11/10 02:11:14;;;;;;;23.88;10.30;;;;;;;;;;4995429;28;20042;-75
2021/11/10 02:13:49;;;;;;;21.95;9.38;;;;;;;;;;4995437;28;20069;-75
2021/11/10 02:16:21;;;;;;;26.50;9.70;;;;;;;;;;4994716;28;20393;-75
2021/11/10 02:18:49;;;;;;;21.33;9.65;;;;;;;;;;4994813;28;20510;-71
2021/11/10 02:21:22;;;;;;;22.58;10.18;;;;;;;;;;4995262;28;20490;-75
2021/11/10 02:23:50;;;;;;;26.95;10.88;;;;;;;;;;4995023;28;20074;-75
2021/11/10 02:26:22;;;;;;;29.45;11.52;;;;;;;;;;4978861;28;20078;-75
2021/11/10 02:28:50;;;;;;;28.83;11.50;;;;;;;;;;4994846;28;20046;-71
2021/11/10 02:31:18;;;;;;;23.92;11.30;;;;;;;;;;4994477;28;20034;-72
2021/11/10 02:33:46;;;;;;;23.83;10.70;;;;;;;;;;4994744;28;20108;-75
2021/11/10 02:36:14;;;;;;;27.27;11.90;;;;;;;;;;4994494;28;20042;-72
2021/11/10 02:38:44;;;;;;;29.05;11.30;;;;;;;;;;4996420;28;20050;-75
2021/11/10 02:41:12;;;;;;;25.67;10.80;;;;;;;;;;4994513;28;20088;-70
2021/11/10 02:43:40;;;;;;;23.25;11.55;;;;;;;;;;4995679;28;20042;-75
2021/11/10 02:46:07;;;;;;;29.92;12.60;;;;;;;;;;4995427;28;20389;-71
2021/11/10 02:48:35;;;;;;;27.90;11.80;;;;;;;;;;4994395;28;20125;-75
2021/11/10 02:51:07;;;;;;;29.95;12.13;;;;;;;;;;4994765;28;20053;-74
2021/11/10 02:53:34;;;;;;;29.33;13.10;;;;;;;;;;4994583;28;20089;-75
2021/11/10 02:56:02;;;;;;;24.85;12.48;;;;;;;;;;4995947;28;20375;-75
2021/11/10 02:58:34;;;;;;;28.88;12.52;;;;;;;;;;4995359;28;20409;-73
2021/11/10 03:01:04;;;;;;;23.42;12.23;;;;;;;;;;4994717;28;20149;-70
2021/11/10 03:03:33;;;;;;;26.13;11.82;;;;;;;;;;4994181;28;20395;-75
2021/11/10 03:06:01;;;;;;;29.25;12.27;;;;;;;;;;4995157;28;20117;-71
2021/11/10 03:08:38;;;;;;;25.73;12.68;;;;;;;;;;4994122;28;20038;-75
2021/11/10 03:11:10;;;;;;;24.30;12.40;;;;;;;;;;4995136;28;20478;-75
2021/11/10 03:13:39;;;;;;;26.20;11.20;;;;;;;;;;4993465;28;20081;-75
2021/11/10 03:16:10;;;;;;;22.90;11.20;;;;;;;;;;4994068;28;20049;-71
2021/11/10 03:18:39;;;;;;;20.75;10.75;;;;;;;;;;4993387;28;20410;-72
2021/11/10 03:21:07;;;;;;;24.40;11.38;;;;;;;;;;4993769;28;20069;-75
2021/11/10 03:23:35;;;;;;;29.92;11.75;;;;;;;;;;4993891;28;20051;-75
2021/11/10 03:26:03;;;;;;;22.75;10.32;;;;;;;;;;4994791;28;20457;-75
2021/11/10 03:28:32;;;;;;;19.75;10.23;;;;;;;;;;4994534;28;20042;-74
2021/11/10 03:31:03;;;;;;;26.42;12.30;;;;;;;;;;4993868;28;20472;-75
2021/11/10 03:33:31;;;;;;;20.58;11.50;;;;;;;;;;4994831;28;20104;-74
2021/11/10 03:36:00;;;;;;;26.67;11.27;;;;;;;;;;4995162;28;20125;-75
2021/11/10 03:38:32;;;;;;;27.17;13.00;;;;;;;;;;4993841;28;20383;-71
2021/11/10 03:41:00;;;;;;;25.45;12.23;;;;;;;;;;4995126;28;20047;-75
2021/11/10 03:43:35;;;;;;;24.75;12.55;;;;;;;;;;4993071;28;20047;-71
2021/11/10 03:46:04;;;;;;;25.10;12.10;;;;;;;;;;4993195;28;20097;-74
2021/11/10 03:48:33;;;;;;;26.95;12.55;;;;;;;;;;4994082;28;20045;-71
2021/11/10 03:51:01;;;;;;;30.77;12.35;;;;;;;;;;4977563;28;20038;-75
2021/11/10 03:53:32;;;;;;;27.58;12.38;;;;;;;;;;4993282;28;20500;-71
2021/11/10 03:55:59;;;;;;;26.92;12.50;;;;;;;;;;4993380;28;20050;-71
2021/11/10 03:58:28;;;;;;;24.20;13.05;;;;;;;;;;4993448;28;20047;-75
2021/11/10 04:00:57;;;;;;;27.92;14.68;;;;;;;;;;4993206;28;20100;-72
2021/11/10 04:03:29;;;;;;;23.90;12.70;;;;;;;;;;4993440;28;20043;-74
2021/11/10 04:05:57;;;;;;;26.25;13.25;;;;;;;;;;4992984;28;20062;-75
2021/11/10 04:08:25;;;;;;;30.02;12.85;;;;;;;;;;4992971;28;20061;-75
2021/11/10 04:10:55;;;;;;;23.75;12.50;;;;;;;;;;4992499;28;20061;-75
2021/11/10 04:13:25;;;;;;;27.65;13.68;;;;;;;;;;4993172;28;20072;-75
2021/11/10 04:15:52;;;;;;;32.08;13.18;;;;;;;;;;4977289;28;20100;-72
2021/11/10 04:18:20;;;;;;;21.38;12.60;;;;;;;;;;4992668;28;20042;-74
2021/11/10 04:20:51;;;;;;;24.02;12.15;;;;;;;;;;4993364;28;20073;-71
2021/11/10 04:23:19;;;;;;;26.45;12.85;;;;;;;;;;4992671;28;20047;-75
2021/11/10 04:25:47;;;;;;;22.88;12.15;;;;;;;;;;4992138;28;20057;-72
2021/11/10 04:28:16;;;;;;;27.08;12.68;;;;;;;;;;4992576;28;20142;-75
2021/11/10 04:30:43;;;;;;;29.17;12.15;;;;;;;;;;4994078;28;20038;-71
2021/11/10 04:33:12;;;;;;;27.23;12.27;;;;;;;;;;4994073;28;20039;-75
2021/11/10 04:35:41;;;;;;;31.27;13.18;;;;;;;;;;4993706;28;20048;-71
2021/11/10 04:38:12;;;;;;;24.40;11.48;;;;;;;;;;4977304;28;20544;-75
2021/11/10 04:40:42;;;;;;;35.97;13.68;;;;;;;;;;4992131;28;20046;-75
2021/11/10 04:43:09;;;;;;;24.25;13.88;;;;;;;;;;4992475;28;20061;-72
2021/11/10 04:45:48;;;;;;;29.17;13.43;;;;;;;;;;4992382;28;20105;-75
2021/11/10 04:48:15;;;;;;;23.23;12.50;;;;;;;;;;4992292;28;20043;-71
2021/11/10 04:50:45;;;;;;;30.17;14.15;;;;;;;;;;4992499;28;20049;-75
2021/11/10 04:53:13;;;;;;;20.73;11.93;;;;;;;;;;4993260;28;20133;-72
2021/11/10 04:55:42;;;;;;;33.92;13.73;;;;;;;;;;4992302;28;20046;-72
2021/11/10 04:58:10;;;;;;;29.98;13.00;;;;;;;;;;4992651;28;20042;-75
2021/11/10 05:00:39;;;;;;;31.98;14.18;;;;;;;;;;4995339;28;20089;-75
2021/11/10 05:03:07;;;;;;;29.98;14.40;;;;;;;;;;4996128;28;20050;-72
2021/11/10 05:05:35;;;;;;;31.08;14.00;;;;;;;;;;4996325;28;20528;-71
2021/11/10 05:08:03;;;;;;;32.05;13.43;;;;;;;;;;4996311;28;20066;-72
2021/11/10 05:10:32;;;;;;;32.28;14.18;;;;;;;;;;4995661;28;20057;-71
2021/11/10 05:13:03;;;;;;;31.38;14.25;;;;;;;;;;4996310;28;20157;-75
2021/11/10 05:15:30;;;;;;;28.10;14.48;;;;;;;;;;4995658;28;20497;-70
2021/11/10 05:18:03;;;;;;;30.23;13.80;;;;;;;;;;4996196;28;20116;-75
2021/11/10 05:20:30;;;;;;;31.55;14.40;;;;;;;;;;4979415;28;20352;-74
2021/11/10 05:23:00;;;;;;;35.33;14.77;;;;;;;;;;4995733;28;20468;-75
2021/11/10 05:25:28;;;;;;;45.63;14.93;;;;;;;;;;4995960;28;20133;-71
2021/11/10 05:27:56;;;;;;;32.60;14.32;;;;;;;;;;4997144;28;20132;-75
2021/11/10 05:30:24;;;;;;;35.95;14.95;;;;;;;;;;4996082;28;20493;-72
2021/11/10 05:32:52;;;;;;;34.28;15.73;;;;;;;;;;4997127;28;20042;-75
2021/11/10 05:35:19;;;;;;;40.22;16.02;;;;;;;;;;4997106;28;20138;-75
2021/11/10 05:37:47;;;;;;;30.98;16.40;;;;;;;;;;4997045;28;20038;-74
2021/11/10 05:40:14;;;;;;;40.25;16.42;;;;;;;;;;4996440;28;20125;-75
2021/11/10 05:42:42;;;;;;;29.27;14.50;;;;;;;;;;4996829;28;20038;-75
2021/11/10 05:45:13;;;;;;;34.22;15.80;;;;;;;;;;4996681;28;20117;-75
2021/11/10 05:47:40;;;;;;;36.13;16.98;;;;;;;;;;4996767;28;20049;-71
2021/11/10 05:50:09;;;;;;;29.50;15.82;;;;;;;;;;4996675;28;20053;-75
2021/11/10 05:52:37;;;;;;;29.75;15.23;;;;;;;;;;4995957;28;20046;-71
2021/11/10 05:55:06;;;;;;;37.08;16.55;;;;;;;;;;4995828;28;20469;-75
2021/11/10 05:57:37;;;;;;;38.88;16.52;;;;;;;;;;4996790;28;20506;-74
2021/11/10 06:00:06;;;;;;;46.97;16.55;;;;;;;;;;4995405;28;20043;-70
2021/11/10 06:02:41;;;;;;;28.35;15.18;;;;;;;;;;4996482;28;20494;-71
2021/11/10 06:05:09;;;;;;;33.13;13.20;;;;;;;;;;4996181;28;20042;-72
2021/11/10 06:07:37;;;;;;;34.40;14.80;;;;;;;;;;4995863;28;20042;-70
2021/11/10 06:10:05;;;;;;;41.38;16.08;;;;;;;;;;4996362;28;20391;-74
2021/11/10 06:12:32;;;;;;;29.88;14.20;;;;;;;;;;4995412;28;20076;-71
2021/11/10 06:15:01;;;;;;;33.38;14.85;;;;;;;;;;4996401;28;20070;-74
2021/11/10 06:17:29;;;;;;;33.17;13.48;;;;;;;;;;4996252;28;20046;-70
2021/11/10 06:19:56;;;;;;;21.83;12.52;;;;;;;;;;4994425;28;20057;-71
2021/11/10 06:22:24;;;;;;;29.65;12.05;;;;;;;;;;4993708;28;20109;-71
2021/11/10 06:24:51;;;;;;;33.08;14.35;;;;;;;;;;4989550;28;20038;-73
2021/11/10 06:27:20;;;;;;;30.45;13.18;;;;;;;;;;4995654;28;20096;-73
2021/11/10 06:29:47;;;;;;;38.53;14.65;;;;;;;;;;4995799;28;20034;-70
2021/11/10 06:32:15;;;;;;;26.20;12.25;;;;;;;;;;4988068;28;20031;-70
2021/11/10 06:34:42;;;;;;;26.27;11.73;;;;;;;;;;4994605;28;20046;-73
2021/11/10 06:37:10;;;;;;;28.60;14.55;;;;;;;;;;4993186;28;20039;-71
2021/11/10 06:39:37;;;;;;;29.17;14.50;;;;;;;;;;4995330;28;20085;-73
2021/11/10 06:42:06;;;;;;;29.38;14.07;;;;;;;;;;4995921;28;20062;-72
2021/11/10 06:44:34;;;;;;;27.10;13.82;;;;;;;;;;4995328;28;20050;-72
2021/11/10 06:47:01;;;;;;;23.60;13.75;;;;;;;;;;4994547;28;20435;-72
2021/11/10 06:49:29;;;;;;;27.63;14.25;;;;;;;;;;4977770;28;20413;-72
2021/11/10 06:51:57;;;;;;;32.30;14.52;;;;;;;;;;4995746;28;20384;-69
2021/11/10 06:54:25;;;;;;;34.00;15.13;;;;;;;;;;4995467;28;20038;-69
2021/11/10 06:56:53;;;;;;;34.83;14.70;;;;;;;;;;4994700;28;20030;-72
2021/11/10 06:59:21;;;;;;;26.63;14.52;;;;;;;;;;4995484;28;20400;-71
2021/11/10 07:01:49;;;;;;;34.88;13.98;;;;;;;;;;4995190;28;20502;-72
2021/11/10 07:04:16;;;;;;;25.85;13.20;;;;;;;;;;4994967;28;20038;-69
2021/11/10 07:06:44;;;;;;;32.85;14.73;;;;;;;;;;4995160;28;20121;-72
2021/11/10 07:09:11;;;;;;;33.80;14.68;;;;;;;;;;4995018;28;20070;-72
2021/11/10 07:11:39;;;;;;;34.85;14.93;;;;;;;;;;4995025;28;20047;-69
2021/11/10 07:14:07;;;;;;;31.33;14.27;;;;;;;;;;4995662;28;20043;-72
2021/11/10 07:16:35;;;;;;;31.50;14.88;;;;;;;;;;4993803;28;20044;-69
2021/11/10 07:19:03;;;;;;;32.05;13.55;;;;;;;;;;4994848;28;20047;-72
2021/11/10 07:21:31;;;;;;;34.65;15.73;;;;;;;;;;4994754;28;20137;-69
2021/11/10 07:23:59;;;;;;;34.08;15.30;;;;;;;;;;4993394;28;20043;-70
2021/11/10 07:26:27;;;;;;;30.55;15.35;;;;;;;;;;4994742;28;20046;-71
2021/11/10 07:28:54;;;;;;;33.85;14.57;;;;;;;;;;4993639;28;20038;-69
2021/11/10 07:31:22;;;;;;;28.40;15.05;;;;;;;;;;4994436;28;20516;-70
2021/11/10 07:33:50;;;;;;;34.20;14.23;;;;;;;;;;4993327;28;20078;-72
2021/11/10 07:36:18;;;;;;;31.52;14.20;;;;;;;;;;4993264;28;20048;-70
2021/11/10 07:38:45;;;;;;;19.85;13.23;;;;;;;;;;4993421;28;20051;-73
2021/11/10 07:41:16;;;;;;;34.55;15.63;;;;;;;;;;4993525;28;20054;-70
2021/11/10 07:43:52;;;;;;;24.85;12.65;;;;;;;;;;4994647;28;20049;-70
2021/11/10 07:46:20;;;;;;;43.20;15.48;;;;;;;;;;4994632;28;20044;-72
2021/11/10 07:48:48;;;;;;;26.38;13.50;;;;;;;;;;4994563;28;20469;-72
2021/11/10 07:51:17;;;;;;;36.10;15.65;;;;;;;;;;4994242;28;20486;-71
2021/11/10 07:53:45;;;;;;;20.98;13.48;;;;;;;;;;4994515;28;20052;-72
2021/11/10 07:56:12;;;;;;;26.33;12.25;;;;;;;;;;4994628;28;20053;-71
2021/11/10 07:58:40;;;;;;;34.80;13.82;;;;;;;;;;4994264;28;20080;-72
2021/11/10 08:01:09;;;;;;;26.73;12.98;;;;;;;;;;4993943;28;20054;-70
2021/11/10 08:03:37;;;;;;;31.60;13.23;;;;;;;;;;4994027;28;20039;-73
2021/11/10 08:06:05;;;;;;;26.25;12.55;;;;;;;;;;4994259;28;20410;-73
2021/11/10 08:08:32;;;;;;;24.80;12.90;;;;;;;;;;4994104;28;20482;-73
2021/11/10 08:11:02;;;;;;;30.30;12.20;;;;;;;;;;4994219;28;20053;-73
2021/11/10 08:13:29;;;;;;;25.10;12.30;;;;;;;;;;4992849;28;20538;-73
2021/11/10 08:15:58;;;;;;;27.85;13.75;;;;;;;;;;4994049;28;20131;-72
2021/11/10 08:18:27;;;;;;;27.05;12.30;;;;;;;;;;4995200;23;20070;-70
2021/11/10 08:20:55;;;;;;;32.00;13.40;;;;;;;;;;4974786;28;20041;-70
2021/11/10 08:23:26;;;;;;;29.95;13.60;;;;;;;;;;4974537;28;20043;-74
2021/11/10 08:25:54;;;;;;;29.35;12.13;;;;;;;;;;4974281;28;20043;-70
2021/11/10 08:28:22;;;;;;;28.65;14.15;;;;;;;;;;4974558;28;20070;-70
2021/11/10 08:30:50;;;;;;;27.45;12.38;;;;;;;;;;4974612;28;20513;-70
2021/11/10 08:33:18;;;;;;;26.58;11.68;;;;;;;;;;4974594;28;20497;-69
2021/11/10 08:35:46;;;;;;;31.02;13.02;;;;;;;;;;4974716;28;20461;-72
2021/11/10 08:38:14;;;;;;;30.60;13.27;;;;;;;;;;4974635;28;20062;-73
2021/11/10 08:40:42;;;;;;;30.10;13.10;;;;;;;;;;4974732;28;20035;-70
2021/11/10 08:43:11;;;;;;;29.92;13.20;;;;;;;;;;4974466;28;20038;-72
2021/11/10 08:45:43;;;;;;;30.30;13.25;;;;;;;;;;4974158;28;20054;-72
2021/11/10 08:48:12;;;;;;;28.13;13.85;;;;;;;;;;4974206;28;20046;-70
2021/11/10 08:50:42;;;;;;;33.05;14.68;;;;;;;;;;4974370;28;20046;-74
2021/11/10 08:53:11;;;;;;;30.23;14.93;;;;;;;;;;4974504;28;20038;-70
2021/11/10 08:55:38;;;;;;;30.33;14.77;;;;;;;;;;4974360;28;20069;-72
2021/11/10 08:58:06;;;;;;;27.10;13.88;;;;;;;;;;4974522;28;20065;-73
2021/11/10 09:00:34;;;;;;;34.33;15.23;;;;;;;;;;4973304;28;20059;-72
2021/11/10 09:03:06;;;;;;;24.67;13.70;;;;;;;;;;4973940;28;20051;-72
2021/11/10 09:05:34;;;;;;;27.63;11.45;;;;;;;;;;4973860;28;20133;-73
2021/11/10 09:08:02;;;;;;;24.60;12.15;;;;;;;;;;4974072;28;20057;-73
2021/11/10 09:10:33;;;;;;;31.13;14.82;;;;;;;;;;4973878;28;20557;-73
2021/11/10 09:13:01;;;;;;;24.70;13.13;;;;;;;;;;4973965;28;20050;-70
2021/11/10 09:15:31;;;;;;;23.63;11.68;;;;;;;;;;4974167;28;20050;-71
2021/11/10 09:18:04;;;;;;;34.10;13.82;;;;;;;;;;4974072;28;20129;-72
2021/11/10 09:20:36;;;;;;;36.70;13.75;;;;;;;;;;4974508;28;20123;-70
2021/11/10 09:23:04;;;;;;;29.73;12.75;;;;;;;;;;4974112;28;20050;-73
2021/11/10 09:25:33;;;;;;;25.20;13.18;;;;;;;;;;4973827;28;20042;-71
2021/11/10 09:28:05;;;;;;;22.05;11.70;;;;;;;;;;4974077;28;20105;-70
2021/11/10 09:30:33;;;;;;;25.90;14.05;;;;;;;;;;4973869;28;20043;-70
2021/11/10 09:33:04;;;;;;;28.73;12.73;;;;;;;;;;4973995;28;20051;-70
2021/11/10 09:35:31;;;;;;;27.60;13.15;;;;;;;;;;4974198;28;20463;-71
2021/11/10 09:37:59;;;;;;;28.38;13.35;;;;;;;;;;4972624;28;20043;-71
2021/11/10 09:40:28;;;;;;;28.90;14.80;;;;;;;;;;4972646;28;20073;-73
2021/11/10 09:43:15;;;;;;;27.30;14.20;;;;;;;;;;4974081;28;20081;-71
2021/11/10 09:45:44;;;;;;;30.95;13.73;;;;;;;;;;4972420;28;20050;-72
2021/11/10 09:48:13;;;;;;;25.83;11.82;;;;;;;;;;4977215;28;20061;-73
2021/11/10 09:50:44;;;;;;;32.35;15.43;;;;;;;;;;4975928;28;20406;-71
2021/11/10 09:53:12;;;;;;;34.47;15.05;;;;;;;;;;4977369;28;20486;-73
2021/11/10 09:55:40;;;;;;;35.53;14.45;;;;;;;;;;4977408;28;20051;-72
2021/11/10 09:58:08;;;;;;;35.60;17.60;;;;;;;;;;4976968;28;20041;-72
2021/11/10 10:00:40;;;;;;;35.45;16.25;;;;;;;;;;4977108;28;20047;-70
2021/11/10 10:03:08;;;;;;;27.88;12.20;;;;;;;;;;4977390;28;20552;-75
2021/11/10 10:05:43;;;;;;;30.45;14.52;;;;;;;;;;4976871;28;20149;-73
2021/11/10 10:08:11;;;;;;;45.13;18.60;;;;;;;;;;4976812;28;20055;-71
2021/11/10 10:10:40;;;;;;;46.45;20.88;;;;;;;;;;4975773;28;20049;-75
2021/11/10 10:13:08;;;;;;;37.72;21.10;;;;;;;;;;4975480;28;20142;-75
2021/11/10 10:15:36;;;;;;;45.40;21.77;;;;;;;;;;4976702;28;20066;-74
2021/11/10 10:18:12;;;;;;;40.53;20.30;;;;;;;;;;4976964;28;20046;-74
2021/11/10 10:20:41;;;;;;;51.75;20.02;;;;;;;;;;4977049;28;20451;-72
2021/11/10 10:23:14;;;;;;;26.40;16.02;;;;;;;;;;4976659;28;20411;-72
2021/11/10 10:25:52;;;;;;;39.38;18.13;;;;;;;;;;4976611;28;20077;-76
2021/11/10 10:28:25;;;;;;;46.35;20.10;;;;;;;;;;4975507;28;20133;-75
2021/11/10 10:30:58;;;;;;;33.10;17.13;;;;;;;;;;4976574;28;20066;-74
2021/11/10 10:33:27;;;;;;;37.17;17.05;;;;;;;;;;4976550;28;20042;-75
2021/11/10 10:36:01;;;;;;;39.40;17.77;;;;;;;;;;4976407;28;20049;-76
2021/11/10 10:38:32;;;;;;;33.55;14.48;;;;;;;;;;4976686;28;20043;-72
2021/11/10 10:41:02;;;;;;;50.03;19.30;;;;;;;;;;4976387;28;20069;-74
2021/11/10 10:43:30;;;;;;;42.42;18.08;;;;;;;;;;4976454;28;20122;-75
2021/11/10 10:45:59;;;;;;;45.83;17.73;;;;;;;;;;4974647;28;20045;-73
2021/11/10 10:48:28;;;;;;;41.92;19.40;;;;;;;;;;4976203;28;20502;-75
2021/11/10 10:50:58;;;;;;;30.67;17.95;;;;;;;;;;4974762;28;20039;-71
2021/11/10 10:53:45;;;;;;;32.75;16.92;;;;;;;;;;4976135;28;20042;-74
2021/11/10 10:56:18;;;;;;;33.45;15.57;;;;;;;;;;4976675;28;20039;-74
2021/11/10 10:58:47;;;;;;;35.45;16.13;;;;;;;;;;4976220;28;20123;-73
2021/11/10 11:01:24;;;;;;;27.55;14.27;;;;;;;;;;4975117;28;20458;-72
2021/11/10 11:03:54;;;;;;;38.20;17.15;;;;;;;;;;4975761;28;20043;-71
2021/11/10 11:06:27;;;;;;;29.98;14.30;;;;;;;;;;4975871;28;20122;-74
2021/11/10 11:09:09;;;;;;;25.60;14.00;;;;;;;;;;4975799;28;20054;-72
2021/11/10 11:11:39;;;;;;;40.53;14.88;;;;;;;;;;4976103;28;20117;-74
2021/11/10 11:14:15;;;;;;;36.08;18.48;;;;;;;;;;4958755;28;20106;-74
2021/11/10 11:16:53;;;;;;;30.40;16.80;;;;;;;;;;4976168;28;20081;-71
2021/11/10 11:19:21;;;;;;;33.22;15.02;;;;;;;;;;4976150;28;20401;-74
2021/11/10 11:21:53;;;;;;;36.95;17.05;;;;;;;;;;4975686;28;20402;-72
2021/11/10 11:24:28;;;;;;;40.80;15.73;;;;;;;;;;4975657;28;20061;-74
2021/11/10 11:27:07;;;;;;;40.03;20.63;;;;;;;;;;4975641;28;20046;-74
2021/11/10 11:29:36;;;;;;;47.00;17.55;;;;;;;;;;4975730;28;20076;-71
2021/11/10 11:32:16;;;;;;;55.97;23.58;;;;;;;;;;4975311;28;20453;-71
2021/11/10 11:34:56;;;;;;;50.53;22.92;;;;;;;;;;4974627;28;20466;-74
2021/11/10 11:37:25;;;;;;;50.35;21.58;;;;;;;;;;4975869;28;20047;-73
2021/11/10 11:39:53;;;;;;;54.63;21.75;;;;;;;;;;4975890;28;20572;-73
2021/11/10 11:42:22;;;;;;;44.60;21.55;;;;;;;;;;4974295;28;20049;-71
2021/11/10 11:44:50;;;;;;;54.17;23.98;;;;;;;;;;4975165;28;20047;-70
2021/11/10 11:47:18;;;;;;;52.90;22.42;;;;;;;;;;4975237;28;20498;-71
2021/11/10 11:49:47;;;;;;;48.90;20.25;;;;;;;;;;4975032;28;20450;-73
2021/11/10 11:52:15;;;;;;;48.80;21.08;;;;;;;;;;4975450;28;20046;-73
2021/11/10 11:54:51;;;;;;;52.38;22.85;;;;;;;;;;4975285;28;20118;-72
2021/11/10 11:57:21;;;;;;;46.20;20.17;;;;;;;;;;4975153;28;20042;-72
2021/11/10 11:59:53;;;;;;;46.33;20.50;;;;;;;;;;4974906;28;20046;-74
2021/11/10 12:02:22;;;;;;;47.20;20.88;;;;;;;;;;4973169;28;20501;-73
2021/11/10 12:04:50;;;;;;;47.20;21.90;;;;;;;;;;4974624;28;20070;-70
2021/11/10 12:07:45;;;;;;;59.13;20.73;;;;;;;;;;4974682;28;20102;-74
2021/11/10 12:10:23;;;;;;;45.08;18.67;;;;;;;;;;4973872;28;20074;-72
2021/11/10 12:13:10;;;;;;;56.63;23.80;;;;;;;;;;4973438;28;20050;-70
2021/11/10 12:15:57;;;;;;;56.45;20.48;;;;;;;;;;4973350;28;20047;-73
2021/11/10 12:18:25;;;;;;;45.22;18.80;;;;;;;;;;4974629;28;20105;-74
2021/11/10 12:21:05;;;;;;;56.35;21.70;;;;;;;;;;4974982;28;20043;-71
2021/11/10 12:23:51;;;;;;;57.42;22.90;;;;;;;;;;4972551;28;20043;-73
2021/11/10 12:26:19;;;;;;;67.22;23.55;;;;;;;;;;4974287;28;20122;-73
2021/11/10 12:28:51;;;;;;;45.80;17.23;;;;;;;;;;4974316;28;20047;-71
2021/11/10 12:31:28;;;;;;;61.53;24.50;;;;;;;;;;4974550;28;20483;-74
2021/11/10 12:33:57;;;;;;;54.55;19.23;;;;;;;;;;4973341;28;20409;-73
2021/11/10 12:36:44;;;;;;;45.95;19.52;;;;;;;;;;4974121;28;20034;-73
2021/11/10 12:39:12;;;;;;;51.22;19.48;;;;;;;;;;4973959;28;20066;-73
2021/11/10 12:41:52;;;;;;;46.92;20.30;;;;;;;;;;4974303;28;20045;-70
2021/11/10 12:44:26;;;;;;;61.55;20.40;;;;;;;;;;4973819;28;20043;-71
2021/11/10 12:46:54;;;;;;;41.63;18.77;;;;;;;;;;4972705;28;20058;-73
2021/11/10 12:49:22;;;;;;;50.03;20.20;;;;;;;;;;4973732;28;20038;-70
2021/11/10 12:52:08;;;;;;;52.28;22.77;;;;;;;;;;4974171;28;20453;-73
2021/11/10 12:54:36;;;;;;;59.50;21.75;;;;;;;;;;4973945;28;20412;-73
2021/11/10 12:57:08;;;;;;;54.80;20.42;;;;;;;;;;4973606;28;20043;-73
2021/11/10 12:59:38;;;;;;;53.95;21.90;;;;;;;;;;4974473;28;20053;-71
2021/11/10 13:02:22;;;;;;;68.43;25.15;;;;;;;;;;4973911;28;20121;-73
2021/11/10 13:04:57;;;;;;;51.92;21.35;;;;;;;;;;4973991;28;20042;-70
2021/11/10 13:07:27;;;;;;;50.20;17.77;;;;;;;;;;4972078;28;20123;-73
2021/11/10 13:10:05;;;;;;;47.53;18.33;;;;;;;;;;4973779;28;20108;-70
2021/11/10 13:12:34;;;;;;;50.72;20.95;;;;;;;;;;4974197;28;20122;-73
2021/11/10 13:15:04;;;;;;;57.75;18.23;;;;;;;;;;4974281;28;20042;-73
2021/11/10 13:17:33;;;;;;;46.97;17.80;;;;;;;;;;4973902;28;20470;-71
2021/11/10 13:20:02;;;;;;;66.00;21.58;;;;;;;;;;4974370;28;20491;-73
2021/11/10 13:22:30;;;;;;;50.30;19.33;;;;;;;;;;4977889;28;20106;-71
2021/11/10 13:24:58;;;;;;;47.08;19.80;;;;;;;;;;4977756;28;20039;-69
2021/11/10 13:27:33;;;;;;;62.88;20.90;;;;;;;;;;4977389;28;20130;-73
2021/11/10 13:30:00;;;;;;;57.08;22.00;;;;;;;;;;4977419;28;20129;-71
2021/11/10 13:32:29;;;;;;;53.05;19.60;;;;;;;;;;4977967;28;20050;-70
2021/11/10 13:34:58;;;;;;;53.55;17.30;;;;;;;;;;4977725;28;20039;-70
2021/11/10 13:37:27;;;;;;;64.95;21.85;;;;;;;;;;4977560;28;20043;-69
2021/11/10 13:39:56;;;;;;;54.47;18.38;;;;;;;;;;4977663;28;20130;-71
2021/11/10 13:42:26;;;;;;;57.88;19.30;;;;;;;;;;4977474;28;20402;-73
2021/11/10 13:45:07;;;;;;;58.53;20.83;;;;;;;;;;4977259;28;20074;-73
2021/11/10 13:47:37;;;;;;;49.85;19.85;;;;;;;;;;4976036;28;20406;-74
2021/11/10 13:50:06;;;;;;;55.42;18.98;;;;;;;;;;4977204;28;20162;-73
2021/11/10 13:52:33;;;;;;;68.05;19.25;;;;;;;;;;4979610;28;20062;-71
2021/11/10 13:55:03;;;;;;;51.80;19.55;;;;;;;;;;4997179;28;20049;-74
2021/11/10 13:57:32;;;;;;;59.53;19.02;;;;;;;;;;4997126;28;20046;-71
2021/11/10 14:00:01;;;;;;;58.95;19.60;;;;;;;;;;4997384;28;20138;-73
2021/11/10 14:02:42;;;;;;;49.70;18.33;;;;;;;;;;4995935;28;20544;-69
2021/11/10 14:05:11;;;;;;;55.43;18.77;;;;;;;;;;4996495;28;20042;-69
2021/11/10 14:07:41;;;;;;;50.95;17.30;;;;;;;;;;4996523;28;20044;-69
2021/11/10 14:10:10;;;;;;;51.38;18.92;;;;;;;;;;4996037;28;20053;-73
2021/11/10 14:12:47;;;;;;;47.10;17.27;;;;;;;;;;4995174;28;20038;-73
2021/11/10 14:15:17;;;;;;;62.38;20.05;;;;;;;;;;4996525;28;20046;-70
2021/11/10 14:17:46;;;;;;;54.30;19.85;;;;;;;;;;4996331;28;20057;-73
2021/11/10 14:20:27;;;;;;;51.35;17.98;;;;;;;;;;4996500;28;20057;-70
2021/11/10 14:23:00;;;;;;;63.25;18.13;;;;;;;;;;4994873;28;20093;-73
2021/11/10 14:25:31;;;;;;;55.45;20.67;;;;;;;;;;4995879;28;20137;-71
2021/11/10 14:28:01;;;;;;;53.40;19.10;;;;;;;;;;4995612;28;20441;-73
2021/11/10 14:30:30;;;;;;;45.92;17.63;;;;;;;;;;4995953;28;20053;-73
2021/11/10 14:33:01;;;;;;;59.17;19.63;;;;;;;;;;4995087;28;20046;-69
2021/11/10 14:35:40;;;;;;;56.92;18.25;;;;;;;;;;4995053;28;20129;-73